createdAt,value
2023-03-05T00:03:17.610Z,5.36
2023-03-05T00:08:19.189Z,5.14
2023-03-05T00:13:20.784Z,5.28
2023-03-05T00:18:22.533Z,5.29
2023-03-05T00:23:24.137Z,5.41
2023-03-05T00:28:25.685Z,5.33
2023-03-05T00:33:27.757Z,5.31
2023-03-05T00:38:29.454Z,4.99
2023-03-05T00:43:31.079Z,4.90
2023-03-05T00:48:32.653Z,5.24
2023-03-05T00:53:34.270Z,5.07
2023-03-05T00:58:35.840Z,5.18
2023-03-05T01:03:37.484Z,5.03
2023-03-05T01:08:39.704Z,5.16
2023-03-05T01:13:41.401Z,5.15
2023-03-05T01:18:43.041Z,5.07
2023-03-05T01:23:44.615Z,5.07
2023-03-05T01:28:46.196Z,5.12
2023-03-05T01:33:47.812Z,5.18
2023-03-05T01:38:49.403Z,5.08
2023-03-05T01:43:52.876Z,5.19
2023-03-05T01:48:56.074Z,5.06
2023-03-05T01:53:59.063Z,4.92
2023-03-05T01:59:03.578Z,5.07
2023-03-05T02:04:05.786Z,4.86
2023-03-05T02:09:07.563Z,5.05
2023-03-05T02:14:10.277Z,4.98
2023-03-05T02:19:12.709Z,4.88
2023-03-05T02:24:17.087Z,5.05
2023-03-05T02:29:20.131Z,4.72
2023-03-05T02:34:22.971Z,4.66
2023-03-05T02:39:25.170Z,4.73
2023-03-05T02:44:27.096Z,4.85
2023-03-05T02:49:28.846Z,4.58
2023-03-05T02:54:30.525Z,4.77
2023-03-05T02:59:32.243Z,4.69
2023-03-05T03:04:34.356Z,4.80
2023-03-05T03:09:36.131Z,4.57
2023-03-05T03:14:41.201Z,4.71
2023-03-05T03:19:43.333Z,4.27
2023-03-05T03:24:44.891Z,4.41
2023-03-05T03:29:46.432Z,4.58
2023-03-05T03:34:48.274Z,4.59
2023-03-05T03:39:49.875Z,4.40
2023-03-05T03:44:51.505Z,4.55
2023-03-05T03:49:56.232Z,4.18
2023-03-05T03:55:01.652Z,4.31
2023-03-05T04:00:06.937Z,4.42
2023-03-05T04:05:13.611Z,4.60
2023-03-05T04:10:15.231Z,4.55
2023-03-05T04:15:16.952Z,4.56
2023-03-05T04:20:18.637Z,4.56
2023-03-05T04:25:20.178Z,4.53
2023-03-05T04:30:24.651Z,4.23
2023-03-05T04:35:26.542Z,4.41
2023-03-05T04:40:28.278Z,4.31
2023-03-05T04:45:29.884Z,4.42
2023-03-05T04:50:31.436Z,4.60
2023-03-05T04:55:33.072Z,4.42
2023-03-05T05:00:34.680Z,4.28
2023-03-05T05:05:36.655Z,4.53
2023-03-05T05:10:41.438Z,4.46
2023-03-05T05:15:43.027Z,4.52
2023-03-05T05:20:44.655Z,4.35
2023-03-05T05:25:46.230Z,4.29
2023-03-05T05:30:47.830Z,4.38
2023-03-05T05:35:49.929Z,4.22
2023-03-05T05:40:51.620Z,4.35
2023-03-05T05:45:53.324Z,3.99
2023-03-05T05:50:55.048Z,4.34
2023-03-05T05:55:56.632Z,4.29
2023-03-05T06:00:58.224Z,4.38
2023-03-05T06:05:59.849Z,4.45
2023-03-05T06:11:01.493Z,4.41
2023-03-05T06:16:07.131Z,4.56
2023-03-05T06:21:12.862Z,4.12
2023-03-05T06:26:19.733Z,4.48
2023-03-05T06:31:25.522Z,4.48
2023-03-05T06:36:27.611Z,4.64
2023-03-05T06:41:30.808Z,4.59
2023-03-05T06:46:34.432Z,4.38
2023-03-05T06:51:39.452Z,4.58
2023-03-05T06:56:43.622Z,4.83
2023-03-05T07:01:45.665Z,4.57
2023-03-05T07:06:47.377Z,4.67
2023-03-05T07:11:49.002Z,4.72
2023-03-05T07:16:50.535Z,4.58
2023-03-05T07:21:52.203Z,4.42
2023-03-05T07:26:53.819Z,4.58
2023-03-05T07:31:56.009Z,4.47
2023-03-05T07:36:57.733Z,4.51
2023-03-05T07:41:59.306Z,4.51
2023-03-05T07:47:06.706Z,4.73
2023-03-05T07:52:08.913Z,4.75
2023-03-05T07:57:12.494Z,4.58
2023-03-05T08:02:14.805Z,4.93
2023-03-05T08:07:17.091Z,4.75
2023-03-05T08:12:18.821Z,4.53
2023-03-05T08:17:20.460Z,4.81
2023-03-05T08:22:22.073Z,5.02
2023-03-05T08:27:23.868Z,5.25
2023-03-05T08:32:25.545Z,4.98
2023-03-05T08:37:27.122Z,5.22
2023-03-05T08:42:28.800Z,5.17
2023-03-05T08:47:30.441Z,5.23
2023-03-05T08:52:32.047Z,5.03
2023-03-05T08:57:33.677Z,5.54
2023-03-05T09:02:35.397Z,5.16
2023-03-05T09:07:37.934Z,5.29
2023-03-05T09:12:39.654Z,5.36
2023-03-05T09:17:42.385Z,5.30
2023-03-05T09:22:43.969Z,5.09
2023-03-05T09:27:45.758Z,4.98
2023-03-05T09:32:47.407Z,5.39
2023-03-05T09:37:49.241Z,5.00
2023-03-05T09:42:53.483Z,5.45
2023-03-05T09:48:13.136Z,5.48
2023-03-05T09:53:14.680Z,5.42
2023-03-05T09:58:43.072Z,5.85
2023-03-05T10:04:16.153Z,5.82
2023-03-05T10:09:28.417Z,5.41
2023-03-05T10:14:34.469Z,5.51
2023-03-05T10:20:02.973Z,5.33
2023-03-05T10:25:20.888Z,5.26
2023-03-05T10:30:48.726Z,5.88
2023-03-05T10:36:21.186Z,5.63
2023-03-05T10:41:53.138Z,5.54
2023-03-05T10:46:57.358Z,6.00
2023-03-05T10:52:06.238Z,5.91
2023-03-05T10:57:20.143Z,6.03
2023-03-05T11:02:22.900Z,5.63
2023-03-05T11:07:24.490Z,6.06
2023-03-05T11:12:30.757Z,6.22
2023-03-05T11:17:47.705Z,6.12
2023-03-05T11:23:11.190Z,6.32
2023-03-05T11:28:30.744Z,6.46
2023-03-05T11:33:36.165Z,6.51
2023-03-05T11:38:56.517Z,6.61
2023-03-05T11:43:59.321Z,5.92
2023-03-05T11:49:01.673Z,6.66
2023-03-05T11:54:11.077Z,6.69
2023-03-05T11:59:27.228Z,6.66
2023-03-05T12:04:30.353Z,6.45
2023-03-05T12:09:41.079Z,6.46
2023-03-05T12:14:49.235Z,6.19
2023-03-05T12:20:25.576Z,6.53
2023-03-05T12:25:35.835Z,6.32
2023-03-05T12:30:37.356Z,6.38
2023-03-05T12:35:41.057Z,6.64
2023-03-05T12:40:43.011Z,6.52
2023-03-05T12:45:45.413Z,6.09
2023-03-05T12:50:48.795Z,6.35
2023-03-05T12:55:57.685Z,6.05
2023-03-05T13:01:04.274Z,6.25
2023-03-05T13:06:08.035Z,6.21
2023-03-05T13:11:17.078Z,6.57
2023-03-05T13:16:20.771Z,6.29
2023-03-05T13:21:27.865Z,6.40
2023-03-05T13:26:29.402Z,6.21
2023-03-05T13:31:31.104Z,6.23
2023-03-05T13:36:33.142Z,5.85
2023-03-05T13:41:34.999Z,6.23
2023-03-05T13:46:38.713Z,6.11
2023-03-05T13:51:41.968Z,6.14
2023-03-05T13:56:56.823Z,6.15
2023-03-05T14:02:00.521Z,6.08
2023-03-05T14:07:06.825Z,6.04
2023-03-05T14:12:30.405Z,6.06
2023-03-05T14:17:39.411Z,5.72
2023-03-05T14:22:43.453Z,5.31
2023-03-05T14:27:47.417Z,5.41
2023-03-05T14:32:49.799Z,5.76
2023-03-05T14:37:52.885Z,5.63
2023-03-05T14:42:58.470Z,5.34
2023-03-05T14:48:03.553Z,5.76
2023-03-05T14:53:18.636Z,5.55
2023-03-05T14:58:21.909Z,4.94
2023-03-05T15:03:24.494Z,5.17
2023-03-05T15:08:28.861Z,5.10
2023-03-05T15:13:31.708Z,5.04
2023-03-05T15:18:33.425Z,5.32
2023-03-05T15:23:38.120Z,4.98
2023-03-05T15:28:39.857Z,5.21
2023-03-05T15:33:41.847Z,5.26
2023-03-05T15:38:43.528Z,5.31
2023-03-05T15:43:45.653Z,5.24
2023-03-05T15:48:50.056Z,5.07
2023-03-05T15:53:51.919Z,5.11
2023-03-05T15:58:53.554Z,5.11
2023-03-05T16:03:55.334Z,5.05
2023-03-05T16:09:01.561Z,4.97
2023-03-05T16:14:04.501Z,4.97
2023-03-05T16:19:07.627Z,4.94
2023-03-05T16:24:09.333Z,4.86
2023-03-05T16:29:11.599Z,5.01
2023-03-05T16:34:14.205Z,5.05
2023-03-05T16:39:15.817Z,5.04
2023-03-05T16:44:17.438Z,4.80
2023-03-05T16:49:20.313Z,5.11
2023-03-05T16:54:22.099Z,5.00
2023-03-05T16:59:24.983Z,5.12
2023-03-05T17:04:26.608Z,4.97
2023-03-05T17:09:28.286Z,5.01
2023-03-05T17:14:29.932Z,5.01
2023-03-05T17:19:32.054Z,4.85
2023-03-05T17:24:33.667Z,4.97
2023-03-05T17:29:35.597Z,4.97
2023-03-05T17:34:37.272Z,5.12
2023-03-05T17:39:39.638Z,5.26
2023-03-05T17:44:42.629Z,5.07
2023-03-05T17:49:44.264Z,5.10
2023-03-05T17:54:45.937Z,5.12
2023-03-05T17:59:48.073Z,5.14
2023-03-05T18:04:52.045Z,4.96
2023-03-05T18:09:53.720Z,5.10
2023-03-05T18:14:55.288Z,4.91
2023-03-05T18:19:56.960Z,4.74
2023-03-05T18:24:58.616Z,5.16
2023-03-05T18:30:00.210Z,5.10
2023-03-05T18:35:01.789Z,5.14
2023-03-05T18:40:09.433Z,5.14
2023-03-05T18:45:14.269Z,4.98
2023-03-05T18:50:18.505Z,4.96
2023-03-05T18:55:23.307Z,5.04
2023-03-05T19:00:30.127Z,4.79
2023-03-05T19:05:32.196Z,4.55
2023-03-05T19:10:34.142Z,4.74
2023-03-05T19:15:39.598Z,4.80
2023-03-05T19:20:41.281Z,4.70
2023-03-05T19:25:42.854Z,4.50
2023-03-05T19:30:44.552Z,4.62
2023-03-05T19:35:46.331Z,4.67
2023-03-05T19:40:48.245Z,4.57
2023-03-05T19:45:49.907Z,4.59
2023-03-05T19:50:51.631Z,4.48
2023-03-05T19:55:53.259Z,4.53
2023-03-05T20:00:54.861Z,4.55
2023-03-05T20:05:56.468Z,4.55
2023-03-05T20:10:58.379Z,4.55
2023-03-05T20:16:00.299Z,4.31
2023-03-05T20:21:03.367Z,4.60
2023-03-05T20:26:06.660Z,4.68
2023-03-05T20:31:08.258Z,4.70
2023-03-05T20:36:10.017Z,4.53
2023-03-05T20:41:14.997Z,4.44
2023-03-05T20:46:16.632Z,4.67
2023-03-05T20:51:22.665Z,4.45
2023-03-05T20:56:28.097Z,4.58
2023-03-05T21:01:30.366Z,4.60
2023-03-05T21:06:33.248Z,4.66
2023-03-05T21:11:35.772Z,4.74
2023-03-05T21:16:37.555Z,4.48
2023-03-05T21:21:40.397Z,4.60
2023-03-05T21:26:41.957Z,4.52
2023-03-05T21:31:43.618Z,4.59
2023-03-05T21:36:45.293Z,4.43
2023-03-05T21:41:48.236Z,4.50
2023-03-05T21:46:51.119Z,4.66
2023-03-05T21:52:09.003Z,4.49
2023-03-05T21:57:11.725Z,4.67
2023-03-05T22:02:15.659Z,4.64
2023-03-05T22:07:18.318Z,4.65
2023-03-05T22:12:30.293Z,4.64
2023-03-05T22:17:31.854Z,4.67
2023-03-05T22:22:33.501Z,4.71
2023-03-05T22:27:35.142Z,4.81
2023-03-05T22:32:37.328Z,4.83
2023-03-05T22:37:41.200Z,4.92
2023-03-05T22:42:44.258Z,4.79
2023-03-05T22:47:48.093Z,4.97
2023-03-05T22:52:49.923Z,4.68
2023-03-05T22:57:51.471Z,4.91
2023-03-05T23:02:53.170Z,4.86
2023-03-05T23:07:54.808Z,5.03
2023-03-05T23:12:58.757Z,4.95
2023-03-05T23:18:01.047Z,5.02
2023-03-05T23:23:03.967Z,5.02
2023-03-05T23:28:05.657Z,5.13
2023-03-05T23:33:18.169Z,5.12
2023-03-05T23:38:20.230Z,5.06
2023-03-05T23:43:24.600Z,5.11
2023-03-05T23:48:27.042Z,4.66
2023-03-05T23:53:31.081Z,5.06
2023-03-05T23:58:32.719Z,4.81
